Time;durP1;ratioP1;P1;durP2;ratioP2;P2;SDS_P1;SDS_P2;PMS_P1;PMS_P2;Temp;Humidity;BMP_temperature;BMP_pressure;BME280_temperature;BME280_humidity;BME280_pressure;Samples;Min_cycle;Max_cycle;Signal;HPM_P1;HPM_P2
2022/05/02 00:00:22;;;;;;;;;;;;;;;10.24;68.82;98564.94;3209205;23;19924;-85
2022/05/02 00:01:51;;;;;;;;;;;;;;;10.20;69.29;98565.91;3208802;23;19924;-85
2022/05/02 00:03:06;;;;;;;;;;;;;;;10.20;69.49;98567.66;3208884;23;19924;-84
2022/05/02 00:04:22;;;;;;;;;;;;;;;10.20;68.54;98565.91;3208685;23;20233;-85
2022/05/02 00:05:37;;;;;;;;;;;;;;;10.23;69.06;98565.84;3209028;23;19930;-84
2022/05/02 00:06:53;;;;;;;;;;;;;;;10.26;68.64;98562.25;3208941;23;19951;-85
2022/05/02 00:08:08;;;;;;;;;;;;;;;10.20;68.90;98562.44;3209014;23;19924;-84
2022/05/02 00:09:24;;;;;;;;;;;;;;;10.26;67.89;98562.25;3209048;23;20697;-85
2022/05/02 00:10:39;;;;;;;;;;;;;;;10.22;67.40;98561.50;3208811;23;19930;-90
2022/05/02 00:11:54;;;;;;;;;;;;;;;10.20;67.97;98560.69;3209114;23;20236;-86
2022/05/02 00:13:10;;;;;;;;;;;;;;;10.14;68.94;98561.69;3208833;23;19927;-86
2022/05/02 00:14:25;;;;;;;;;;;;;;;10.10;69.20;98565.25;3208971;23;20003;-86
2022/05/02 00:15:41;;;;;;;;;;;;;;;10.04;69.73;98568.88;3208866;23;19924;-86
2022/05/02 00:16:56;;;;;;;;;;;;;;;10.00;70.29;98564.63;3209170;23;19930;-85
2022/05/02 00:18:12;;;;;;;;;;;;;;;9.99;69.94;98569.91;3208759;23;20433;-85
2022/05/02 00:19:28;;;;;;;;;;;;;;;9.95;70.07;98566.50;3208506;23;19923;-87
2022/05/02 00:20:43;;;;;;;;;;;;;;;9.92;70.68;98566.56;3208572;23;20393;-85
2022/05/02 00:21:58;;;;;;;;;;;;;;;9.91;70.66;98567.44;3209070;23;20298;-86
2022/05/02 00:23:14;;;;;;;;;;;;;;;9.92;71.34;98563.97;3207649;23;19930;-86
2022/05/02 00:24:30;;;;;;;;;;;;;;;9.91;70.53;98569.22;3208123;23;19991;-86
2022/05/02 00:25:45;;;;;;;;;;;;;;;9.85;71.27;98565.84;3209307;23;20276;-86
2022/05/02 00:27:01;;;;;;;;;;;;;;;9.81;71.43;98565.97;3208534;23;19932;-87
2022/05/02 00:28:16;;;;;;;;;;;;;;;9.81;71.09;98565.97;3208850;23;19931;-86
2022/05/02 00:29:32;;;;;;;;;;;;;;;9.80;71.12;98565.09;3208816;23;19924;-87
2022/05/02 00:30:47;;;;;;;;;;;;;;;9.79;71.55;98565.13;3208800;23;20262;-86
2022/05/02 00:32:04;;;;;;;;;;;;;;;9.79;71.14;98572.97;3208155;23;19963;-85
2022/05/02 00:33:20;;;;;;;;;;;;;;;9.77;71.59;98566.91;3208987;23;20389;-86
2022/05/02 00:34:35;;;;;;;;;;;;;;;9.75;71.82;98559.94;3209239;23;19924;-85
2022/05/02 00:35:50;;;;;;;;;;;;;;;9.79;72.11;98562.53;3208741;23;19924;-85
2022/05/02 00:37:06;;;;;;;;;;;;;;;9.75;71.95;98567.78;3208207;23;20749;-86
2022/05/02 00:38:21;;;;;;;;;;;;;;;9.75;72.02;98570.41;3209162;23;20002;-85
2022/05/02 00:39:37;;;;;;;;;;;;;;;9.72;72.25;98567.88;3209446;23;19927;-87
2022/05/02 00:40:52;;;;;;;;;;;;;;;9.73;72.17;98568.75;3208747;23;20355;-85
2022/05/02 00:42:08;;;;;;;;;;;;;;;9.71;72.34;98568.78;3208822;23;19930;-87
2022/05/02 00:43:23;;;;;;;;;;;;;;;9.70;72.64;98572.28;3208413;23;19927;-86
2022/05/02 00:44:43;;;;;;;;;;;;;;;9.67;71.96;98567.13;3208900;23;20002;-85
2022/05/02 00:45:59;;;;;;;;;;;;;;;9.64;71.44;98559.38;3208469;23;19959;-84
2022/05/02 00:47:20;;;;;;;;;;;;;;;9.64;70.96;98568.94;3208670;23;19920;-85
2022/05/02 00:48:36;;;;;;;;;;;;;;;9.64;70.28;98569.81;3208723;23;19936;-85
2022/05/02 00:49:51;;;;;;;;;;;;;;;9.63;70.26;98562.00;3207555;23;19995;-85
2022/05/02 00:51:07;;;;;;;;;;;;;;;9.63;70.05;98568.06;3208295;23;19930;-85
2022/05/02 00:52:22;;;;;;;;;;;;;;;9.64;70.22;98563.72;3208361;23;19924;-85
2022/05/02 00:53:38;;;;;;;;;;;;;;;9.63;69.81;98565.47;3208565;23;19924;-85
2022/05/02 00:54:54;;;;;;;;;;;;;;;9.65;69.57;98568.91;3209080;23;19931;-89
2022/05/02 00:56:09;;;;;;;;;;;;;;;9.65;69.86;98566.31;3208492;23;19923;-84
2022/05/02 00:57:25;;;;;;;;;;;;;;;9.66;69.83;98567.16;3208746;23;19924;-85
2022/05/02 00:58:40;;;;;;;;;;;;;;;9.65;70.00;98565.44;3208667;23;20777;-87
2022/05/02 00:59:56;;;;;;;;;;;;;;;9.61;70.12;98562.91;3208968;23;20402;-87
2022/05/02 01:01:11;;;;;;;;;;;;;;;9.58;70.49;98557.75;3208921;23;19928;-90
2022/05/02 01:02:27;;;;;;;;;;;;;;;9.57;69.64;98558.63;3208929;23;19931;-83
2022/05/02 01:03:42;;;;;;;;;;;;;;;9.54;70.16;98557.84;3208840;23;20255;-86
2022/05/02 01:04:57;;;;;;;;;;;;;;;9.54;70.09;98557.84;3208839;23;20043;-85
2022/05/02 01:07:47;;;;;;;;;;;;;;;9.49;70.66;98559.66;3208495;23;19931;-85
2022/05/02 01:09:03;;;;;;;;;;;;;;;9.44;71.69;98560.63;3208838;23;19923;-85
2022/05/02 01:10:18;;;;;;;;;;;;;;;9.51;71.07;98555.28;3208711;23;19923;-85
2022/05/02 01:11:34;;;;;;;;;;;;;;;9.52;71.02;98552.63;3208867;23;19924;-86
2022/05/02 01:12:51;;;;;;;;;;;;;;;9.47;72.33;98557.94;3208302;23;19924;-86
2022/05/02 01:14:09;;;;;;;;;;;;;;;9.57;71.19;98561.25;3208819;23;19990;-86
2022/05/02 01:15:27;;;;;;;;;;;;;;;9.63;71.33;98556.78;3208803;23;20346;-87
2022/05/02 01:16:42;;;;;;;;;;;;;;;9.59;71.84;98548.13;3208654;23;19942;-86
2022/05/02 01:17:58;;;;;;;;;;;;;;;9.57;71.87;98555.16;3209070;23;20083;-88
2022/05/02 01:19:13;;;;;;;;;;;;;;;9.55;72.03;98551.72;3208695;23;19924;-84
2022/05/02 01:20:29;;;;;;;;;;;;;;;9.54;71.92;98552.59;3208732;23;19953;-87
2022/05/02 01:21:44;;;;;;;;;;;;;;;9.55;71.72;98549.94;3209294;23;19942;-85
2022/05/02 01:22:59;;;;;;;;;;;;;;;9.55;72.65;98546.50;3208847;23;20397;-85
2022/05/02 01:24:15;;;;;;;;;;;;;;;9.55;72.48;98549.09;3209098;23;19924;-86
2022/05/02 01:25:30;;;;;;;;;;;;;;;9.55;72.17;98549.09;3209154;23;19931;-85
2022/05/02 01:26:46;;;;;;;;;;;;;;;9.54;71.75;98545.63;3208965;23;20244;-85
2022/05/02 01:28:01;;;;;;;;;;;;;;;9.52;71.66;98549.19;3208737;23;20358;-90
2022/05/02 01:29:17;;;;;;;;;;;;;;;9.51;71.72;98547.47;3209028;23;20642;-86
2022/05/02 01:30:32;;;;;;;;;;;;;;;9.49;72.03;98544.00;3208951;23;19924;-86
2022/05/02 01:31:47;;;;;;;;;;;;;;;9.51;72.23;98547.47;3209649;23;20275;-86
2022/05/02 01:33:03;;;;;;;;;;;;;;;9.49;71.69;98549.22;3209893;23;20416;-85
2022/05/02 01:34:18;;;;;;;;;;;;;;;9.45;72.09;98544.06;3210036;23;19923;-86
2022/05/02 01:35:34;;;;;;;;;;;;;;;9.42;72.30;98549.38;3213299;23;20334;-84
2022/05/02 01:36:49;;;;;;;;;;;;;;;9.38;73.10;98545.09;3215182;23;19930;-85
2022/05/02 01:38:05;;;;;;;;;;;;;;;9.36;73.46;98544.28;3215035;23;19923;-84
2022/05/02 01:39:20;;;;;;;;;;;;;;;9.32;73.60;98548.72;3215800;23;19993;-84
2022/05/02 01:40:36;;;;;;;;;;;;;;;9.26;73.69;98543.59;3212644;23;20370;-86
2022/05/02 01:41:51;;;;;;;;;;;;;;;9.24;73.61;98541.94;3208497;23;20023;-85
2022/05/02 01:43:09;;;;;;;;;;;;;;;9.24;73.84;98544.53;3207634;23;19943;-88
2022/05/02 01:44:24;;;;;;;;;;;;;;;9.22;73.99;98541.94;3208090;23;19924;-87
2022/05/02 01:45:40;;;;;;;;;;;;;;;9.18;74.44;98543.75;3208547;23;19920;-85
2022/05/02 01:46:55;;;;;;;;;;;;;;;9.14;74.65;98544.72;3208761;23;20255;-85
2022/05/02 01:48:11;;;;;;;;;;;;;;;9.08;75.74;98539.63;3208889;23;19939;-85
2022/05/02 01:49:26;;;;;;;;;;;;;;;9.00;76.17;98536.31;3208358;23;19935;-85
2022/05/02 01:50:41;;;;;;;;;;;;;;;8.96;76.20;98538.09;3208769;23;20005;-86
2022/05/02 01:52:00;;;;;;;;;;;;;;;8.94;76.33;98536.41;3208474;23;19927;-85
2022/05/02 01:53:15;;;;;;;;;;;;;;;8.92;76.29;98538.19;3208306;23;19920;-85
2022/05/02 01:54:31;;;;;;;;;;;;;;;8.92;76.41;98546.03;3207989;23;19977;-86
2022/05/02 01:55:46;;;;;;;;;;;;;;;8.91;76.21;98537.34;3208270;23;19924;-86
2022/05/02 01:57:02;;;;;;;;;;;;;;;8.90;75.90;98543.47;3208271;23;19924;-85
2022/05/02 01:58:17;;;;;;;;;;;;;;;8.89;75.05;98545.19;3208101;23;20409;-85
2022/05/02 01:59:33;;;;;;;;;;;;;;;8.88;74.64;98543.47;3208522;23;20679;-85
2022/05/02 02:00:48;;;;;;;;;;;;;;;8.89;74.43;98542.59;3208453;23;19924;-85
2022/05/02 02:02:04;;;;;;;;;;;;;;;8.88;73.96;98546.09;3208651;23;19924;-86
2022/05/02 02:03:19;;;;;;;;;;;;;;;8.87;73.97;98557.44;3208442;23;19923;-86
2022/05/02 02:06:09;;;;;;;;;;;;;;;8.89;73.64;98549.59;3208674;23;19994;-86
2022/05/02 02:07:24;;;;;;;;;;;;;;;8.89;74.23;98550.44;3208747;23;19924;-85
2022/05/02 02:08:40;;;;;;;;;;;;;;;8.90;73.53;98546.06;3208578;23;20074;-85
2022/05/02 02:09:55;;;;;;;;;;;;;;;8.89;73.66;98549.59;3208841;23;19930;-87
2022/05/02 02:11:10;;;;;;;;;;;;;;;8.86;73.77;98550.50;3208670;23;19954;-84
2022/05/02 02:12:26;;;;;;;;;;;;;;;8.83;74.07;98553.16;3208271;23;20002;-85
2022/05/02 02:13:41;;;;;;;;;;;;;;;8.80;74.13;98554.97;3208149;23;19930;-86
2022/05/02 02:14:57;;;;;;;;;;;;;;;8.77;74.44;98550.66;3208680;23;19930;-86
2022/05/02 02:16:13;;;;;;;;;;;;;;;8.76;74.51;98554.16;3208239;23;20323;-85
2022/05/02 02:17:29;;;;;;;;;;;;;;;8.74;74.52;98551.59;3208082;23;20489;-85
2022/05/02 02:18:44;;;;;;;;;;;;;;;8.74;74.47;98553.34;3208034;23;19947;-85
2022/05/02 02:20:00;;;;;;;;;;;;;;;8.72;74.53;98548.13;3207934;23;19923;-84
2022/05/02 02:21:15;;;;;;;;;;;;;;;8.73;74.28;98549.00;3207974;23;19924;-84
2022/05/02 02:22:31;;;;;;;;;;;;;;;8.68;74.97;98546.47;3208244;23;19924;-84
2022/05/02 02:23:47;;;;;;;;;;;;;;;8.62;74.89;98552.66;3208249;23;19928;-85
2022/05/02 02:25:03;;;;;;;;;;;;;;;8.61;75.17;98550.94;3208512;23;19931;-87
2022/05/02 02:26:18;;;;;;;;;;;;;;;8.61;74.83;98553.56;3208449;23;19931;-86
2022/05/02 02:27:34;;;;;;;;;;;;;;;8.60;75.15;98546.63;3208088;23;19943;-85
2022/05/02 02:28:49;;;;;;;;;;;;;;;8.60;74.98;98549.22;3208371;23;20328;-84
2022/05/02 02:30:05;;;;;;;;;;;;;;;8.60;75.16;98549.22;3208404;23;20479;-84
2022/05/02 02:31:20;;;;;;;;;;;;;;;8.60;74.68;98551.00;3207925;23;19928;-85
2022/05/02 02:32:36;;;;;;;;;;;;;;;8.59;75.21;98549.25;3208041;23;19928;-85
2022/05/02 02:33:52;;;;;;;;;;;;;;;8.52;75.65;98550.25;3207788;23;19939;-85
2022/05/02 02:35:08;;;;;;;;;;;;;;;8.53;75.32;98541.53;3207912;23;20379;-86
2022/05/02 02:36:23;;;;;;;;;;;;;;;8.55;75.51;98543.25;3207952;23;19920;-87
2022/05/02 02:37:39;;;;;;;;;;;;;;;8.55;75.38;98548.47;3208096;23;19930;-86
2022/05/02 02:38:54;;;;;;;;;;;;;;;8.55;76.38;98547.59;3208182;23;19927;-86
2022/05/02 02:40:10;;;;;;;;;;;;;;;8.53;75.85;98542.41;3208286;23;20606;-85
2022/05/02 02:41:25;;;;;;;;;;;;;;;8.55;75.82;98548.47;3208223;23;19924;-86
2022/05/02 02:42:41;;;;;;;;;;;;;;;8.55;75.32;98540.63;3208011;23;20006;-85
2022/05/02 02:43:56;;;;;;;;;;;;;;;8.56;75.65;98541.47;3208005;23;19982;-85
2022/05/02 02:45:12;;;;;;;;;;;;;;;8.56;75.36;98539.75;3208191;23;19935;-87
2022/05/02 02:46:27;;;;;;;;;;;;;;;8.57;75.69;98537.97;3208013;23;19931;-86
2022/05/02 02:47:43;;;;;;;;;;;;;;;8.56;75.55;98537.13;3207816;23;19923;-86
2022/05/02 02:48:58;;;;;;;;;;;;;;;8.55;75.34;98538.03;3208091;23;19924;-89
2022/05/02 02:50:14;;;;;;;;;;;;;;;8.57;75.26;98535.38;3208244;23;19928;-89
2022/05/02 02:51:29;;;;;;;;;;;;;;;8.56;76.21;98534.53;3208445;23;19946;-88
2022/05/02 02:52:45;;;;;;;;;;;;;;;8.56;76.52;98534.53;3207632;23;19924;-87
2022/05/02 02:54:00;;;;;;;;;;;;;;;8.58;76.68;98537.09;3208767;23;20350;-86
2022/05/02 02:55:16;;;;;;;;;;;;;;;8.57;76.92;98531.03;3208461;23;19924;-86
2022/05/02 02:56:31;;;;;;;;;;;;;;;8.60;79.00;98535.34;3209570;23;19920;-86
2022/05/02 02:57:47;;;;;;;;;;;;;;;8.55;80.46;98532.81;3209182;23;19923;-85
2022/05/02 02:59:02;;;;;;;;;;;;;;;8.58;80.77;98530.13;3209084;23;20002;-86
2022/05/02 03:00:18;;;;;;;;;;;;;;;8.58;80.70;98531.88;3208745;23;20332;-85
2022/05/02 03:01:33;;;;;;;;;;;;;;;8.57;80.25;98528.41;3208611;23;20083;-86
2022/05/02 03:02:49;;;;;;;;;;;;;;;8.53;79.82;98521.53;3208956;23;19924;-88
2022/05/02 03:07:14;;;;;;;;;;;;;;;8.52;79.37;98526.78;3209089;23;19943;-86
2022/05/02 03:08:31;;;;;;;;;;;;;;;8.50;79.41;98523.31;3208692;23;19961;-86
2022/05/02 03:09:47;;;;;;;;;;;;;;;8.47;78.89;98522.47;3208906;23;19946;-86
2022/05/02 03:11:03;;;;;;;;;;;;;;;8.45;78.59;98528.59;3209077;23;19923;-86
2022/05/02 03:12:19;;;;;;;;;;;;;;;8.44;78.58;98530.34;3208883;23;19951;-85
2022/05/02 03:13:34;;;;;;;;;;;;;;;8.43;78.79;98531.22;3209596;23;20354;-87
2022/05/02 03:14:50;;;;;;;;;;;;;;;8.44;78.18;98525.13;3209658;23;20253;-88
2022/05/02 03:16:05;;;;;;;;;;;;;;;8.43;78.30;98526.00;3209544;23;20338;-89
2022/05/02 03:17:21;;;;;;;;;;;;;;;8.42;78.24;98523.44;3209173;23;19948;-86
2022/05/02 03:18:37;;;;;;;;;;;;;;;8.37;78.17;98520.03;3209398;23;19955;-88
2022/05/02 03:19:52;;;;;;;;;;;;;;;8.33;78.56;98525.31;3209479;23;20299;-86
2022/05/02 03:21:08;;;;;;;;;;;;;;;8.26;78.77;98528.94;3209334;23;20146;-85
2022/05/02 03:22:23;;;;;;;;;;;;;;;8.17;79.77;98523.88;3208920;23;20002;-86
2022/05/02 03:23:38;;;;;;;;;;;;;;;8.12;79.89;98516.13;3208982;23;19920;-86
2022/05/02 03:24:54;;;;;;;;;;;;;;;8.11;79.59;98521.38;3206978;23;19935;-86
2022/05/02 03:26:09;;;;;;;;;;;;;;;8.07;79.54;98523.16;3208786;23;19924;-89
2022/05/02 03:27:25;;;;;;;;;;;;;;;8.04;80.05;98521.47;3210031;23;20298;-86
2022/05/02 03:28:40;;;;;;;;;;;;;;;8.02;80.17;98524.97;3208277;23;19986;-85
2022/05/02 03:29:56;;;;;;;;;;;;;;;8.02;80.32;98525.84;3208600;23;20368;-86
2022/05/02 03:31:11;;;;;;;;;;;;;;;8.02;80.28;98520.63;3208996;23;19924;-86
2022/05/02 03:32:27;;;;;;;;;;;;;;;8.00;80.17;98519.78;3206882;23;19969;-89
2022/05/02 03:33:42;;;;;;;;;;;;;;;8.02;79.93;98519.75;3208010;23;20481;-86
2022/05/02 03:34:58;;;;;;;;;;;;;;;8.03;79.86;98517.13;3209129;23;19930;-85
2022/05/02 03:36:13;;;;;;;;;;;;;;;8.02;79.97;98514.53;3208530;23;19924;-86
2022/05/02 03:37:29;;;;;;;;;;;;;;;8.03;80.03;98513.66;3208225;23;19928;-87
2022/05/02 03:38:44;;;;;;;;;;;;;;;8.05;79.30;98520.56;3209057;23;19924;-86
2022/05/02 03:40:00;;;;;;;;;;;;;;;8.08;79.09;98518.78;3207961;23;19982;-86
2022/05/02 03:41:15;;;;;;;;;;;;;;;8.09;78.82;98523.13;3208281;23;19919;-86
2022/05/02 03:42:30;;;;;;;;;;;;;;;8.10;79.12;98522.22;3208102;23;19939;-86
2022/05/02 03:43:46;;;;;;;;;;;;;;;8.09;78.84;98518.78;3207807;23;20431;-84
2022/05/02 03:45:01;;;;;;;;;;;;;;;8.08;79.10;98519.66;3208180;23;20003;-86
2022/05/02 03:46:17;;;;;;;;;;;;;;;8.06;79.05;98519.69;3208298;23;20319;-85
2022/05/02 03:47:32;;;;;;;;;;;;;;;8.05;79.35;98515.34;3208196;23;20692;-85
2022/05/02 03:48:48;;;;;;;;;;;;;;;8.04;79.23;98520.63;3208513;23;19982;-86
2022/05/02 03:50:03;;;;;;;;;;;;;;;8.01;80.41;98513.69;3208170;23;19999;-85
2022/05/02 03:51:19;;;;;;;;;;;;;;;7.99;80.28;98515.47;3208710;23;20354;-85
2022/05/02 03:52:34;;;;;;;;;;;;;;;7.99;79.90;98515.47;3208649;23;19924;-86
2022/05/02 03:53:49;;;;;;;;;;;;;;;8.00;79.79;98518.91;3209065;23;20653;-85
2022/05/02 03:55:05;;;;;;;;;;;;;;;7.99;80.25;98518.06;3209026;23;19994;-85
2022/05/02 03:56:21;;;;;;;;;;;;;;;8.01;79.90;98523.25;3208795;23;19935;-87
2022/05/02 03:57:36;;;;;;;;;;;;;;;8.00;79.90;98516.31;3209032;23;19928;-85
2022/05/02 03:58:52;;;;;;;;;;;;;;;7.99;79.52;98520.69;3208781;23;19924;-86
2022/05/02 04:00:08;;;;;;;;;;;;;;;7.99;79.65;98525.03;3208996;23;19924;-85
2022/05/02 04:01:24;;;;;;;;;;;;;;;7.99;80.07;98519.81;3208408;23;20175;-88
2022/05/02 04:02:40;;;;;;;;;;;;;;;8.00;79.83;98518.91;3208729;23;19931;-86
2022/05/02 04:03:55;;;;;;;;;;;;;;;7.99;80.14;98525.91;3209253;23;19950;-86
2022/05/02 04:05:11;;;;;;;;;;;;;;;7.97;80.42;98527.66;3208702;23;19924;-85
2022/05/02 04:06:26;;;;;;;;;;;;;;;7.98;80.23;98525.91;3208914;23;19934;-86
2022/05/02 04:07:42;;;;;;;;;;;;;;;7.95;79.93;98531.19;3208566;23;19955;-86
2022/05/02 04:08:57;;;;;;;;;;;;;;;7.96;80.70;98530.28;3208263;23;19924;-86
2022/05/02 04:10:13;;;;;;;;;;;;;;;7.96;80.14;98535.50;3208300;23;20359;-86
2022/05/02 04:11:28;;;;;;;;;;;;;;;7.96;79.93;98536.38;3208575;23;19920;-85
2022/05/02 04:12:43;;;;;;;;;;;;;;;7.97;79.93;98535.50;3208788;23;19920;-85
2022/05/02 04:13:59;;;;;;;;;;;;;;;7.98;79.66;98532.00;3209269;23;19924;-86
2022/05/02 04:15:14;;;;;;;;;;;;;;;7.98;79.75;98531.13;3209050;23;19948;-85
2022/05/02 04:16:30;;;;;;;;;;;;;;;7.97;80.57;98537.22;3209126;23;19942;-85
2022/05/02 04:17:45;;;;;;;;;;;;;;;7.95;80.72;98531.19;3209268;23;20255;-86
2022/05/02 04:19:01;;;;;;;;;;;;;;;7.95;80.50;98531.19;3209782;23;19973;-86
2022/05/02 04:20:16;;;;;;;;;;;;;;;7.95;80.85;98528.56;3209204;23;20698;-86
2022/05/02 04:21:32;;;;;;;;;;;;;;;7.96;80.11;98528.56;3209489;23;19924;-86
2022/05/02 04:22:47;;;;;;;;;;;;;;;7.96;80.39;98530.28;3208631;23;20605;-86
2022/05/02 04:24:03;;;;;;;;;;;;;;;7.96;80.63;98531.16;3209012;23;19982;-85
2022/05/02 04:25:19;;;;;;;;;;;;;;;7.97;80.50;98532.88;3209861;23;19924;-88
2022/05/02 04:26:35;;;;;;;;;;;;;;;7.97;80.36;98539.84;3210051;23;19925;-85
2022/05/02 04:27:50;;;;;;;;;;;;;;;7.97;80.27;98535.50;3210657;23;19920;-86
2022/05/02 04:29:05;;;;;;;;;;;;;;;7.96;80.14;98533.78;3213770;23;20003;-85
2022/05/02 04:30:21;;;;;;;;;;;;;;;7.96;80.23;98539.00;3215215;23;19923;-84
2022/05/02 04:31:36;;;;;;;;;;;;;;;7.97;79.95;98538.09;3215123;23;19927;-84
2022/05/02 04:32:52;;;;;;;;;;;;;;;7.97;79.83;98543.31;3215609;23;19995;-84
2022/05/02 04:34:07;;;;;;;;;;;;;;;8.00;79.96;98539.78;3210548;23;19924;-88
2022/05/02 04:35:23;;;;;;;;;;;;;;;7.98;79.75;98545.03;3207085;23;19919;-85
2022/05/02 04:36:38;;;;;;;;;;;;;;;7.98;80.50;98545.03;3207751;23;19931;-85
2022/05/02 04:37:53;;;;;;;;;;;;;;;8.00;80.89;98545.88;3213708;23;19924;-88
2022/05/02 04:39:09;;;;;;;;;;;;;;;7.95;80.83;98542.44;3208641;23;20030;-88
2022/05/02 04:40:24;;;;;;;;;;;;;;;7.93;81.04;98538.16;3208645;23;19928;-87
2022/05/02 04:41:40;;;;;;;;;;;;;;;7.92;81.13;98539.91;3208281;23;19930;-87
2022/05/02 04:42:55;;;;;;;;;;;;;;;7.94;80.95;98543.34;3208287;23;20604;-87
2022/05/02 04:44:11;;;;;;;;;;;;;;;7.95;80.73;98542.44;3208323;23;20191;-87
2022/05/02 04:45:26;;;;;;;;;;;;;;;7.95;80.97;98545.06;3208740;23;20343;-86
2022/05/02 04:46:42;;;;;;;;;;;;;;;7.96;81.53;98543.31;3208351;23;19924;-86
2022/05/02 04:47:57;;;;;;;;;;;;;;;7.97;81.36;98538.09;3208340;23;19994;-87
2022/05/02 04:49:12;;;;;;;;;;;;;;;7.98;81.62;98545.03;3208658;23;19924;-87
2022/05/02 04:50:28;;;;;;;;;;;;;;;8.00;81.20;98553.69;3208270;23;20262;-87
2022/05/02 04:51:43;;;;;;;;;;;;;;;8.03;81.23;98545.81;3208381;23;19930;-85
2022/05/02 04:52:59;;;;;;;;;;;;;;;8.08;81.12;98543.13;3207944;23;19975;-86
2022/05/02 04:54:14;;;;;;;;;;;;;;;8.12;81.27;98542.19;3208226;23;19926;-87
2022/05/02 04:55:30;;;;;;;;;;;;;;;8.17;81.41;98544.72;3208255;23;19920;-84
2022/05/02 04:56:45;;;;;;;;;;;;;;;8.20;81.25;98545.53;3208137;23;20375;-85
2022/05/02 04:58:00;;;;;;;;;;;;;;;8.23;80.86;98544.59;3208437;23;19927;-85
2022/05/02 04:59:16;;;;;;;;;;;;;;;8.27;80.92;98540.22;3208214;23;19924;-86
2022/05/02 05:00:31;;;;;;;;;;;;;;;8.28;80.32;98542.81;3208151;23;20027;-86
2022/05/02 05:01:47;;;;;;;;;;;;;;;8.31;81.31;98545.34;3208332;23;20464;-87
2022/05/02 05:03:03;;;;;;;;;;;;;;;8.37;81.37;98540.91;3207857;23;19924;-87
2022/05/02 05:04:18;;;;;;;;;;;;;;;8.39;81.82;98536.56;3208341;23;19924;-85
2022/05/02 05:05:34;;;;;;;;;;;;;;;8.41;82.01;98542.59;3207515;23;20358;-88
2022/05/02 05:06:49;;;;;;;;;;;;;;;8.42;82.11;98544.31;3207713;23;20526;-86
2022/05/02 05:08:05;;;;;;;;;;;;;;;8.47;82.70;98542.47;3208012;23;19978;-87
2022/05/02 05:09:20;;;;;;;;;;;;;;;8.47;82.80;98551.19;3208502;23;20029;-87
2022/05/02 05:10:43;;;;;;;;;;;;;;;8.50;82.54;98547.66;3208349;23;19931;-84
2022/05/02 05:11:58;;;;;;;;;;;;;;;8.51;83.83;98543.31;3213315;23;20434;-85
2022/05/02 05:13:18;;;;;;;;;;;;;;;8.59;83.43;98546.63;3208408;23;19928;-86
2022/05/02 05:16:41;;;;;;;;;;;;;;;8.59;82.79;98554.47;3208421;23;19927;-85
2022/05/02 05:18:05;;;;;;;;;;;;;;;8.69;82.91;98552.56;3212951;23;20006;-85
2022/05/02 05:19:34;;;;;;;;;;;;;;;8.67;82.32;98549.97;3213107;23;20002;-87
2022/05/02 05:20:58;;;;;;;;;;;;;;;8.76;82.07;98546.31;3213350;23;20247;-86
2022/05/02 05:22:20;;;;;;;;;;;;;;;8.80;81.88;98553.22;3207871;23;19966;-85
2022/05/02 05:23:35;;;;;;;;;;;;;;;8.80;82.90;98555.84;3205932;23;19927;-86
2022/05/02 05:24:53;;;;;;;;;;;;;;;8.82;82.43;98551.44;3207075;23;20007;-87
2022/05/02 05:26:12;;;;;;;;;;;;;;;8.86;81.37;98555.72;3207800;23;19927;-86
2022/05/02 05:27:34;;;;;;;;;;;;;;;8.84;80.32;98560.09;3207692;23;19951;-86
2022/05/02 05:29:10;;;;;;;;;;;;;;;8.87;80.28;98562.66;3208291;23;19920;-87
2022/05/02 05:30:27;;;;;;;;;;;;;;;8.92;80.37;98557.34;3208085;23;19927;-86
2022/05/02 05:31:42;;;;;;;;;;;;;;;8.92;80.41;98565.19;3208132;23;19923;-87
2022/05/02 05:33:25;;;;;;;;;;;;;;;8.98;80.01;98553.75;3207541;23;19999;-87
2022/05/02 05:34:46;;;;;;;;;;;;;;;9.02;80.42;98553.69;3203128;23;19986;-85
2022/05/02 05:36:03;;;;;;;;;;;;;;;9.04;80.88;98548.41;3208025;23;19924;-87
2022/05/02 05:37:37;;;;;;;;;;;;;;;9.08;80.38;98551.81;3207779;23;19931;-86
2022/05/02 05:39:04;;;;;;;;;;;;;;;9.14;80.26;98546.44;3208204;23;19920;-85
2022/05/02 05:40:22;;;;;;;;;;;;;;;9.24;78.55;98550.59;3207313;23;20354;-86
2022/05/02 05:41:53;;;;;;;;;;;;;;;9.32;76.43;98550.44;3207645;23;19944;-86
2022/05/02 05:43:11;;;;;;;;;;;;;;;9.45;75.53;98551.06;3208156;23;19928;-87
2022/05/02 05:44:27;;;;;;;;;;;;;;;9.49;75.79;98544.00;3208541;23;19951;-88
2022/05/02 05:45:48;;;;;;;;;;;;;;;9.54;77.05;98548.22;3208571;23;19927;-82
2022/05/02 05:47:12;;;;;;;;;;;;;;;9.58;78.04;98549.03;3206992;23;20391;-86
2022/05/02 05:48:30;;;;;;;;;;;;;;;9.62;78.08;98550.66;3207023;23;19934;-87
2022/05/02 05:50:04;;;;;;;;;;;;;;;9.76;78.51;98547.75;3207316;23;19989;-87
2022/05/02 05:51:38;;;;;;;;;;;;;;;9.79;76.77;98547.69;3207669;23;20409;-87
2022/05/02 05:52:58;;;;;;;;;;;;;;;9.82;76.84;98544.13;3207510;23;19927;-87
2022/05/02 05:54:31;;;;;;;;;;;;;;;9.85;76.11;98546.69;3208065;23;19958;-88
2022/05/02 05:56:05;;;;;;;;;;;;;;;9.88;76.02;98542.25;3208311;23;19928;-86
2022/05/02 05:57:31;;;;;;;;;;;;;;;9.94;76.63;98545.59;3208467;23;19927;-87
2022/05/02 05:58:57;;;;;;;;;;;;;;;9.94;75.75;98546.47;3214026;23;19931;-87
2022/05/02 06:00:13;;;;;;;;;;;;;;;10.01;76.13;98541.97;3214484;23;19919;-87
2022/05/02 06:01:35;;;;;;;;;;;;;;;10.08;75.27;98545.28;3209009;23;20259;-88
2022/05/02 06:02:59;;;;;;;;;;;;;;;10.03;74.06;98541.00;3208676;23;19924;-88
2022/05/02 06:04:16;;;;;;;;;;;;;;;10.07;75.84;98546.19;3209613;23;19970;-86
2022/05/02 06:05:34;;;;;;;;;;;;;;;10.09;75.37;98544.38;3209288;23;20191;-85
2022/05/02 06:06:50;;;;;;;;;;;;;;;10.08;74.66;98548.75;3208940;23;19931;-86
2022/05/02 06:08:08;;;;;;;;;;;;;;;10.10;76.04;98543.47;3208450;23;19924;-86
2022/05/02 06:09:24;;;;;;;;;;;;;;;10.13;75.21;98549.50;3208420;23;20255;-86
2022/05/02 06:10:41;;;;;;;;;;;;;;;10.20;74.93;98547.59;3208605;23;20049;-86
2022/05/02 06:11:59;;;;;;;;;;;;;;;10.24;74.14;98543.13;3208504;23;19952;-86
2022/05/02 06:13:16;;;;;;;;;;;;;;;10.30;73.29;98546.44;3209094;23;19934;-89
2022/05/02 06:18:27;;;;;;;;;;;;;;;10.44;73.03;98548.75;3208385;23;19963;-88
2022/05/02 06:19:24;;;;;;;;;;;;;;;10.56;72.55;98547.56;3208422;23;20421;-87
2022/05/02 06:20:39;;;;;;;;;;;;;;;10.56;71.73;98547.56;3208212;23;19990;-87
2022/05/02 06:21:55;;;;;;;;;;;;;;;10.64;72.81;98551.75;3208204;23;19927;-87
2022/05/02 06:23:15;;;;;;;;;;;;;;;10.66;73.09;98548.19;3208073;23;19931;-87
2022/05/02 06:24:32;;;;;;;;;;;;;;;10.72;72.61;98549.78;3207973;23;19924;-86
2022/05/02 06:25:48;;;;;;;;;;;;;;;10.76;72.41;98551.44;3208016;23;20339;-87
2022/05/02 06:27:04;;;;;;;;;;;;;;;10.79;71.94;98546.13;3207945;23;19931;-87
2022/05/02 06:28:22;;;;;;;;;;;;;;;10.83;72.69;98542.50;3207758;23;20013;-87
2022/05/02 06:29:39;;;;;;;;;;;;;;;10.83;72.90;98542.50;3207472;23;20292;-87
2022/05/02 06:30:56;;;;;;;;;;;;;;;10.96;71.17;98539.53;3207474;23;19920;-86
2022/05/02 06:32:12;;;;;;;;;;;;;;;10.95;71.02;98545.69;3207899;23;19931;-87
2022/05/02 06:33:28;;;;;;;;;;;;;;;11.01;70.50;98548.13;3207558;23;19927;-86
2022/05/02 06:34:44;;;;;;;;;;;;;;;11.04;70.64;98550.69;3207764;23;19943;-87
2022/05/02 06:35:59;;;;;;;;;;;;;;;11.05;70.78;98546.28;3208080;23;19994;-87
2022/05/02 06:37:20;;;;;;;;;;;;;;;11.09;69.93;98545.28;3207815;23;19924;-90
2022/05/02 06:38:51;;;;;;;;;;;;;;;11.05;70.02;98541.91;3208294;23;19924;-87
2022/05/02 06:40:07;;;;;;;;;;;;;;;11.09;71.11;98540.03;3207612;23;19986;-87
2022/05/02 06:41:35;;;;;;;;;;;;;;;11.19;69.31;98544.13;3207080;23;20336;-86
2022/05/02 06:42:56;;;;;;;;;;;;;;;11.19;68.87;98543.28;3207359;23;19923;-87
2022/05/02 06:44:18;;;;;;;;;;;;;;;11.13;68.81;98539.06;3207559;23;19924;-88
2022/05/02 06:45:33;;;;;;;;;;;;;;;11.18;69.38;98539.78;3207010;23;19924;-87
2022/05/02 06:46:56;;;;;;;;;;;;;;;11.23;69.93;98542.28;3206920;23;20336;-86
2022/05/02 06:48:11;;;;;;;;;;;;;;;11.26;68.79;98537.81;3208001;23;19993;-87
2022/05/02 06:49:31;;;;;;;;;;;;;;;11.27;69.36;98538.66;3208034;23;19970;-86
2022/05/02 06:50:53;;;;;;;;;;;;;;;11.33;69.78;98542.88;3208058;23;19927;-87
2022/05/02 06:52:10;;;;;;;;;;;;;;;11.41;70.70;98541.72;3208229;23;20197;-87
2022/05/02 06:53:32;;;;;;;;;;;;;;;11.51;70.00;98533.59;3207766;23;19923;-87
2022/05/02 06:54:57;;;;;;;;;;;;;;;11.62;69.79;98538.50;3208192;23;19928;-87
2022/05/02 06:56:36;;;;;;;;;;;;;;;11.72;68.99;98539.94;3208203;23;19972;-87